Time;durP1;ratioP1;P1;durP2;ratioP2;P2;SDS_P1;SDS_P2;PMS_P1;PMS_P2;Temp;Humidity;BMP_temperature;BMP_pressure;BME280_temperature;BME280_humidity;BME280_pressure;Samples;Min_cycle;Max_cycle;Signal;HPM_P1;HPM_P2
2020/12/31 00:01:21;;;;;;;10.63;8.30;;;;;;;;;;5068376;28;20673;-75
2020/12/31 00:03:47;;;;;;;9.67;8.07;;;;;;;;;;5062055;28;20201;-76
2020/12/31 00:06:12;;;;;;;13.00;10.10;;;;;;;;;;5065799;28;20189;-76
2020/12/31 00:08:37;;;;;;;11.20;9.60;;;;;;;;;;5067033;28;20177;-75
2020/12/31 00:11:02;;;;;;;11.67;9.53;;;;;;;;;;5060936;28;20518;-76
2020/12/31 00:13:27;;;;;;;11.83;9.20;;;;;;;;;;5065005;28;20792;-75
2020/12/31 00:15:52;;;;;;;13.73;9.43;;;;;;;;;;5063497;28;20181;-76
2020/12/31 00:18:18;;;;;;;13.53;10.07;;;;;;;;;;5077189;28;20188;-76
2020/12/31 00:20:43;;;;;;;13.13;10.00;;;;;;;;;;5067862;28;20662;-75
2020/12/31 00:23:08;;;;;;;14.27;10.83;;;;;;;;;;5069381;28;20189;-76
2020/12/31 00:25:36;;;;;;;14.67;10.90;;;;;;;;;;5071917;28;20204;-76
2020/12/31 00:28:01;;;;;;;16.20;11.13;;;;;;;;;;5062133;28;20189;-75
2020/12/31 00:30:27;;;;;;;16.33;11.57;;;;;;;;;;5067391;28;20173;-75
2020/12/31 00:32:52;;;;;;;14.60;11.53;;;;;;;;;;5066232;28;20235;-76
2020/12/31 00:35:18;;;;;;;18.87;12.43;;;;;;;;;;5063489;28;20249;-75
2020/12/31 00:37:43;;;;;;;19.07;13.97;;;;;;;;;;5071042;28;20208;-75
2020/12/31 00:40:08;;;;;;;18.73;14.33;;;;;;;;;;5061015;28;20647;-75
2020/12/31 00:42:33;;;;;;;17.23;13.97;;;;;;;;;;5067863;28;20196;-76
2020/12/31 00:44:58;;;;;;;19.87;13.87;;;;;;;;;;5069756;28;20272;-75
2020/12/31 00:47:24;;;;;;;23.50;14.63;;;;;;;;;;5067384;28;20193;-75
2020/12/31 00:49:49;;;;;;;19.30;13.20;;;;;;;;;;5064970;28;20260;-75
2020/12/31 00:52:14;;;;;;;18.07;12.63;;;;;;;;;;5065555;28;20180;-75
2020/12/31 00:54:39;;;;;;;17.23;12.60;;;;;;;;;;5067581;28;20220;-76
2020/12/31 00:57:04;;;;;;;16.30;11.67;;;;;;;;;;5066998;28;20740;-76
2020/12/31 00:59:29;;;;;;;14.67;10.23;;;;;;;;;;5064252;28;20188;-76
2020/12/31 01:01:54;;;;;;;13.77;9.30;;;;;;;;;;5065103;28;20555;-76
2020/12/31 01:04:20;;;;;;;12.07;9.60;;;;;;;;;;5068240;28;20193;-76
2020/12/31 01:06:45;;;;;;;12.30;8.90;;;;;;;;;;5068271;28;20177;-76
2020/12/31 01:09:10;;;;;;;11.90;8.27;;;;;;;;;;5063424;28;20177;-76
2020/12/31 01:11:36;;;;;;;11.10;8.43;;;;;;;;;;5067744;28;20181;-76
2020/12/31 01:14:01;;;;;;;11.57;7.60;;;;;;;;;;5066962;28;20248;-76
2020/12/31 01:16:26;;;;;;;10.57;6.93;;;;;;;;;;5064386;28;20275;-76
2020/12/31 01:18:52;;;;;;;8.07;5.70;;;;;;;;;;5062917;28;20201;-76
2020/12/31 01:21:17;;;;;;;7.00;4.50;;;;;;;;;;5060406;28;20234;-76
2020/12/31 01:23:42;;;;;;;5.40;3.43;;;;;;;;;;5064062;28;20216;-76
2020/12/31 01:26:08;;;;;;;6.33;3.10;;;;;;;;;;5066878;28;20628;-76
2020/12/31 01:28:34;;;;;;;4.00;2.70;;;;;;;;;;5065223;28;20626;-76
2020/12/31 01:30:59;;;;;;;3.30;2.17;;;;;;;;;;5064218;28;20216;-76
2020/12/31 01:33:24;;;;;;;2.50;2.30;;;;;;;;;;5064730;28;20208;-76
2020/12/31 01:35:49;;;;;;;4.77;2.23;;;;;;;;;;5060921;28;20191;-76
2020/12/31 01:38:14;;;;;;;4.57;2.03;;;;;;;;;;5066211;28;20591;-76
2020/12/31 01:40:45;;;;;;;3.77;2.27;;;;;;;;;;5064003;28;20173;-76
2020/12/31 01:43:10;;;;;;;3.03;1.97;;;;;;;;;;5068651;28;20430;-76
2020/12/31 01:45:35;;;;;;;2.50;1.87;;;;;;;;;;5066505;28;20199;-76
2020/12/31 01:48:00;;;;;;;2.37;1.40;;;;;;;;;;5061446;28;20230;-76
2020/12/31 01:50:25;;;;;;;2.20;1.93;;;;;;;;;;5062862;28;20212;-76
2020/12/31 01:52:51;;;;;;;2.20;1.47;;;;;;;;;;5061476;28;20235;-76
2020/12/31 01:55:16;;;;;;;1.90;1.30;;;;;;;;;;5059619;28;20224;-76
2020/12/31 01:57:41;;;;;;;2.57;1.87;;;;;;;;;;5065504;28;20212;-76
2020/12/31 02:00:06;;;;;;;3.27;1.63;;;;;;;;;;5063004;28;20469;-76
2020/12/31 02:02:31;;;;;;;2.53;1.50;;;;;;;;;;5063129;28;20232;-76
2020/12/31 02:04:57;;;;;;;1.87;1.47;;;;;;;;;;5060425;28;20701;-76
2020/12/31 02:07:22;;;;;;;2.90;2.07;;;;;;;;;;5068763;28;20181;-75
2020/12/31 02:09:47;;;;;;;3.40;2.20;;;;;;;;;;5071445;28;20185;-75
2020/12/31 02:12:13;;;;;;;4.73;2.70;;;;;;;;;;5069443;28;20172;-76
2020/12/31 02:14:46;;;;;;;4.40;2.70;;;;;;;;;;5066010;28;20235;-76
2020/12/31 02:17:12;;;;;;;3.40;2.93;;;;;;;;;;5070905;28;20205;-76
2020/12/31 02:19:37;;;;;;;4.67;3.20;;;;;;;;;;5063363;28;20560;-76
2020/12/31 02:22:02;;;;;;;4.10;2.70;;;;;;;;;;5073266;28;20255;-75
2020/12/31 02:24:27;;;;;;;4.67;3.40;;;;;;;;;;5071348;28;20212;-75
2020/12/31 02:26:52;;;;;;;4.43;3.50;;;;;;;;;;5070483;28;20208;-75
2020/12/31 02:29:18;;;;;;;5.37;3.63;;;;;;;;;;5066755;28;20196;-75
2020/12/31 02:31:44;;;;;;;8.17;5.70;;;;;;;;;;5066165;28;20249;-75
2020/12/31 02:34:10;;;;;;;11.97;8.33;;;;;;;;;;5071282;28;20792;-75
2020/12/31 02:36:36;;;;;;;11.37;7.57;;;;;;;;;;5069114;28;20284;-75
2020/12/31 02:39:11;;;;;;;10.00;7.83;;;;;;;;;;5065139;28;20172;-75
2020/12/31 02:41:36;;;;;;;12.57;8.13;;;;;;;;;;5064692;28;20554;-75
2020/12/31 02:44:02;;;;;;;13.87;9.80;;;;;;;;;;5064459;28;20189;-75
2020/12/31 02:46:27;;;;;;;11.17;8.23;;;;;;;;;;5072881;28;20192;-75
2020/12/31 02:48:53;;;;;;;16.50;10.60;;;;;;;;;;5067069;28;20577;-75
2020/12/31 02:51:18;;;;;;;16.50;12.73;;;;;;;;;;5066742;28;20224;-75
2020/12/31 02:53:44;;;;;;;18.37;12.93;;;;;;;;;;5067376;28;20204;-75
2020/12/31 02:56:12;;;;;;;18.33;13.30;;;;;;;;;;5070372;28;20205;-76
2020/12/31 02:58:38;;;;;;;17.93;12.67;;;;;;;;;;5061743;28;20174;-75
2020/12/31 03:01:03;;;;;;;14.77;12.63;;;;;;;;;;5066363;28;20238;-76
2020/12/31 03:03:29;;;;;;;18.57;13.07;;;;;;;;;;5071793;28;20197;-75
2020/12/31 03:05:54;;;;;;;16.03;12.07;;;;;;;;;;5058848;28;20279;-75
2020/12/31 03:08:19;;;;;;;18.40;12.83;;;;;;;;;;5065103;28;20590;-75
2020/12/31 03:10:44;;;;;;;16.50;13.07;;;;;;;;;;5070358;28;20235;-75
2020/12/31 03:13:09;;;;;;;15.20;12.73;;;;;;;;;;5066747;28;20288;-75
2020/12/31 03:15:34;;;;;;;15.07;11.87;;;;;;;;;;5062688;28;20238;-75
2020/12/31 03:17:59;;;;;;;17.03;12.43;;;;;;;;;;5069721;28;20697;-75
2020/12/31 03:20:25;;;;;;;20.17;12.17;;;;;;;;;;5064382;28;20169;-75
2020/12/31 03:22:50;;;;;;;15.80;12.17;;;;;;;;;;5067270;28;20205;-75
2020/12/31 03:25:15;;;;;;;14.97;12.03;;;;;;;;;;5068821;28;20189;-75
2020/12/31 03:27:40;;;;;;;16.17;11.43;;;;;;;;;;5061546;28;20170;-75
2020/12/31 03:30:06;;;;;;;16.67;12.70;;;;;;;;;;5064463;28;20306;-75
2020/12/31 03:32:31;;;;;;;15.93;11.83;;;;;;;;;;5067103;28;20197;-75
2020/12/31 03:34:57;;;;;;;16.57;11.50;;;;;;;;;;5064679;28;20165;-75
2020/12/31 03:37:23;;;;;;;15.33;11.90;;;;;;;;;;5066262;28;20202;-75
2020/12/31 03:39:48;;;;;;;17.63;12.33;;;;;;;;;;5067202;28;20177;-75
2020/12/31 03:42:14;;;;;;;16.90;12.33;;;;;;;;;;5061136;28;20181;-75
2020/12/31 03:44:39;;;;;;;14.57;11.93;;;;;;;;;;5067043;28;20208;-75
2020/12/31 03:47:04;;;;;;;14.37;11.20;;;;;;;;;;5069952;28;20264;-75
2020/12/31 03:49:29;;;;;;;15.20;12.43;;;;;;;;;;5070764;28;20230;-75
2020/12/31 03:51:54;;;;;;;14.03;12.33;;;;;;;;;;5071605;28;20181;-75
2020/12/31 03:54:20;;;;;;;15.43;12.63;;;;;;;;;;5066552;28;20667;-75
2020/12/31 03:56:45;;;;;;;15.37;12.53;;;;;;;;;;5062665;28;20205;-75
2020/12/31 03:59:10;;;;;;;17.07;12.43;;;;;;;;;;5069935;28;20265;-75
2020/12/31 04:01:35;;;;;;;15.37;11.97;;;;;;;;;;5072518;28;20654;-75
2020/12/31 04:04:01;;;;;;;16.70;12.90;;;;;;;;;;5070022;28;20237;-75
2020/12/31 04:06:27;;;;;;;15.53;12.13;;;;;;;;;;5060678;28;20182;-75
2020/12/31 04:08:52;;;;;;;16.27;11.60;;;;;;;;;;5068951;28;20216;-75
2020/12/31 04:11:17;;;;;;;15.57;11.63;;;;;;;;;;5063908;28;20271;-75
2020/12/31 04:13:42;;;;;;;15.87;12.00;;;;;;;;;;5064106;28;20211;-75
2020/12/31 04:16:08;;;;;;;14.67;11.60;;;;;;;;;;5060936;28;20188;-75
2020/12/31 04:18:33;;;;;;;15.27;12.03;;;;;;;;;;5067581;28;20717;-75
2020/12/31 04:20:58;;;;;;;16.23;12.37;;;;;;;;;;5068719;28;20173;-75
2020/12/31 04:23:24;;;;;;;17.57;13.20;;;;;;;;;;5061270;28;20201;-75
2020/12/31 04:25:49;;;;;;;17.77;13.47;;;;;;;;;;5069054;28;20177;-75
2020/12/31 04:28:14;;;;;;;16.40;13.00;;;;;;;;;;5066914;28;20189;-75
2020/12/31 04:30:40;;;;;;;18.13;12.80;;;;;;;;;;5059992;28;20185;-75
2020/12/31 04:33:05;;;;;;;16.57;12.77;;;;;;;;;;5061417;28;20296;-75
2020/12/31 04:35:30;;;;;;;20.23;14.57;;;;;;;;;;5062380;28;20672;-75
2020/12/31 04:37:55;;;;;;;19.97;13.47;;;;;;;;;;5064724;28;20202;-75
2020/12/31 04:40:20;;;;;;;18.40;13.00;;;;;;;;;;5065969;28;20284;-75
2020/12/31 04:42:49;;;;;;;20.53;14.93;;;;;;;;;;5068319;28;20555;-75
2020/12/31 04:45:14;;;;;;;19.67;13.07;;;;;;;;;;5067829;28;20222;-75
2020/12/31 04:47:45;;;;;;;21.03;13.60;;;;;;;;;;5060842;28;20268;-75
2020/12/31 04:50:12;;;;;;;20.93;14.60;;;;;;;;;;5067582;28;20191;-75
2020/12/31 04:52:37;;;;;;;19.43;13.43;;;;;;;;;;5056020;28;20181;-75
2020/12/31 04:55:02;;;;;;;20.57;15.20;;;;;;;;;;5064455;28;20716;-75
2020/12/31 04:57:27;;;;;;;21.73;14.83;;;;;;;;;;5066372;28;20241;-75
2020/12/31 04:59:53;;;;;;;19.97;13.83;;;;;;;;;;5059291;28;20211;-75
2020/12/31 05:02:18;;;;;;;21.33;14.90;;;;;;;;;;5064023;28;20189;-75
2020/12/31 05:04:44;;;;;;;20.70;14.10;;;;;;;;;;5061232;28;20225;-75
2020/12/31 05:07:09;;;;;;;21.23;14.43;;;;;;;;;;5061795;28;20195;-75
2020/12/31 05:09:35;;;;;;;22.57;14.20;;;;;;;;;;5062276;28;20173;-75
2020/12/31 05:12:00;;;;;;;22.83;15.37;;;;;;;;;;5062105;28;20223;-75
2020/12/31 05:14:32;;;;;;;23.27;15.13;;;;;;;;;;5065274;28;20240;-75
2020/12/31 05:17:16;;;;;;;23.10;15.03;;;;;;;;;;5062954;28;20335;-74
2020/12/31 05:19:41;;;;;;;21.70;15.00;;;;;;;;;;5063545;28;20177;-75
2020/12/31 05:22:09;;;;;;;19.00;14.53;;;;;;;;;;5064439;28;20168;-75
2020/12/31 05:24:34;;;;;;;23.27;15.67;;;;;;;;;;5063300;28;20572;-75
2020/12/31 05:27:14;;;;;;;23.83;15.80;;;;;;;;;;5062845;28;20193;-75
2020/12/31 05:29:39;;;;;;;23.87;16.67;;;;;;;;;;5060529;28;20259;-75
2020/12/31 05:32:04;;;;;;;22.07;14.33;;;;;;;;;;5062377;28;20335;-75
2020/12/31 05:34:30;;;;;;;24.50;15.13;;;;;;;;;;5062031;28;20213;-75
2020/12/31 05:37:11;;;;;;;23.77;16.10;;;;;;;;;;5062687;28;20221;-75
2020/12/31 05:39:37;;;;;;;22.97;14.90;;;;;;;;;;5064196;28;20181;-75
2020/12/31 05:42:09;;;;;;;25.10;16.80;;;;;;;;;;5063828;28;20180;-75
2020/12/31 05:44:34;;;;;;;24.93;14.90;;;;;;;;;;5058990;28;20189;-75
2020/12/31 05:46:59;;;;;;;24.27;15.27;;;;;;;;;;5069493;28;20280;-75
2020/12/31 05:49:29;;;;;;;22.17;15.93;;;;;;;;;;5067635;28;20177;-75
2020/12/31 05:51:54;;;;;;;24.90;15.73;;;;;;;;;;5066416;28;20178;-75
2020/12/31 05:54:22;;;;;;;20.47;15.07;;;;;;;;;;5066217;28;20262;-75
2020/12/31 05:56:47;;;;;;;19.90;14.13;;;;;;;;;;5066984;28;20557;-75
2020/12/31 05:59:25;;;;;;;21.97;15.37;;;;;;;;;;5062342;28;20180;-75
2020/12/31 06:01:55;;;;;;;23.33;16.07;;;;;;;;;;5065692;28;20222;-75
2020/12/31 06:04:34;;;;;;;23.70;14.97;;;;;;;;;;5063757;28;20566;-75
2020/12/31 06:07:04;;;;;;;22.60;15.53;;;;;;;;;;5057446;28;20183;-75
2020/12/31 06:09:33;;;;;;;22.90;14.23;;;;;;;;;;5060140;28;20177;-75
2020/12/31 06:12:00;;;;;;;21.27;14.57;;;;;;;;;;5060339;28;20197;-75
2020/12/31 06:14:25;;;;;;;22.10;14.70;;;;;;;;;;5064121;28;20217;-75
2020/12/31 06:16:54;;;;;;;20.30;14.83;;;;;;;;;;5063180;28;20208;-75
2020/12/31 06:19:31;;;;;;;24.80;14.00;;;;;;;;;;5063660;28;20177;-75
2020/12/31 06:22:03;;;;;;;20.63;13.80;;;;;;;;;;5059437;28;20165;-75
2020/12/31 06:24:33;;;;;;;20.57;14.67;;;;;;;;;;5064894;28;20206;-75
2020/12/31 06:27:02;;;;;;;26.43;14.93;;;;;;;;;;5064151;28;20188;-75
2020/12/31 06:29:28;;;;;;;19.30;14.57;;;;;;;;;;5056395;28;20177;-75
2020/12/31 06:31:54;;;;;;;21.17;13.93;;;;;;;;;;5066191;28;20185;-75
2020/12/31 06:34:19;;;;;;;28.30;14.90;;;;;;;;;;5063988;28;20690;-75
2020/12/31 06:36:45;;;;;;;23.63;16.20;;;;;;;;;;5064756;28;20209;-75
2020/12/31 06:39:18;;;;;;;23.10;15.53;;;;;;;;;;5065387;28;20706;-75
2020/12/31 06:41:43;;;;;;;25.97;14.37;;;;;;;;;;5067518;28;20188;-75
2020/12/31 06:44:16;;;;;;;24.80;15.60;;;;;;;;;;5064384;28;20205;-75
2020/12/31 06:46:43;;;;;;;21.33;15.27;;;;;;;;;;5067982;28;20177;-75
2020/12/31 06:49:09;;;;;;;21.63;15.17;;;;;;;;;;5066391;28;20181;-75
2020/12/31 06:51:34;;;;;;;25.83;16.43;;;;;;;;;;5069060;28;20697;-75
2020/12/31 06:53:59;;;;;;;24.23;16.87;;;;;;;;;;5070419;28;20204;-75
2020/12/31 06:56:42;;;;;;;25.93;15.93;;;;;;;;;;5071816;28;20204;-75
2020/12/31 06:59:26;;;;;;;27.53;15.70;;;;;;;;;;5066316;28;20185;-75
2020/12/31 07:01:51;;;;;;;24.50;15.20;;;;;;;;;;5066749;28;20184;-75
2020/12/31 07:04:26;;;;;;;25.30;16.67;;;;;;;;;;5072183;28;20193;-75
2020/12/31 07:06:51;;;;;;;25.53;15.10;;;;;;;;;;5066778;28;20190;-75
2020/12/31 07:09:31;;;;;;;21.37;15.43;;;;;;;;;;5066999;28;20197;-75
2020/12/31 07:12:02;;;;;;;26.40;15.90;;;;;;;;;;5072355;28;20177;-75
2020/12/31 07:14:28;;;;;;;22.17;14.97;;;;;;;;;;5068105;28;20216;-75
2020/12/31 07:16:56;;;;;;;20.70;13.93;;;;;;;;;;5067888;28;20231;-75
2020/12/31 07:19:27;;;;;;;20.77;14.70;;;;;;;;;;5067915;28;20177;-75
2020/12/31 07:21:52;;;;;;;22.40;15.33;;;;;;;;;;5067528;28;20177;-75
2020/12/31 07:24:22;;;;;;;26.37;15.50;;;;;;;;;;5067652;28;20273;-75
2020/12/31 07:26:55;;;;;;;26.17;14.20;;;;;;;;;;5070099;28;20230;-75
2020/12/31 07:29:26;;;;;;;23.23;14.53;;;;;;;;;;5069226;28;20250;-75
2020/12/31 07:31:52;;;;;;;23.67;14.40;;;;;;;;;;5072363;28;20203;-75
2020/12/31 07:34:20;;;;;;;22.90;14.77;;;;;;;;;;5073177;28;20204;-75
2020/12/31 07:36:55;;;;;;;29.40;17.20;;;;;;;;;;5073280;28;20637;-75
2020/12/31 07:39:20;;;;;;;25.93;16.27;;;;;;;;;;5063276;28;20182;-75
2020/12/31 07:41:45;;;;;;;25.13;15.63;;;;;;;;;;5062131;28;20201;-75
2020/12/31 07:44:10;;;;;;;24.57;15.77;;;;;;;;;;5063673;28;20602;-75
2020/12/31 07:46:37;;;;;;;25.40;14.93;;;;;;;;;;5069160;28;20575;-75
2020/12/31 07:49:03;;;;;;;24.40;15.17;;;;;;;;;;5066959;28;20185;-75
2020/12/31 07:51:28;;;;;;;23.03;15.57;;;;;;;;;;5062223;28;20264;-75
2020/12/31 07:53:59;;;;;;;23.33;13.52;;;;;;;;;;5067042;28;20317;-75
2020/12/31 07:56:26;;;;;;;24.70;15.27;;;;;;;;;;5058254;28;20276;-75
2020/12/31 07:58:52;;;;;;;24.93;16.23;;;;;;;;;;5065885;28;20654;-75
2020/12/31 08:01:22;;;;;;;25.43;15.77;;;;;;;;;;5061953;28;20263;-75
2020/12/31 08:03:47;;;;;;;28.23;16.83;;;;;;;;;;5059154;28;20283;-75
2020/12/31 08:06:12;;;;;;;27.80;15.93;;;;;;;;;;5063057;28;20252;-75
2020/12/31 08:08:37;;;;;;;32.37;17.50;;;;;;;;;;5069242;28;20626;-75
2020/12/31 08:11:09;;;;;;;31.77;17.30;;;;;;;;;;5067838;28;20166;-75
2020/12/31 08:13:35;;;;;;;35.30;18.03;;;;;;;;;;5067286;28;21039;-75
2020/12/31 08:16:00;;;;;;;33.47;18.50;;;;;;;;;;5065621;28;20218;-80
2020/12/31 08:18:26;;;;;;;33.30;18.83;;;;;;;;;;5063506;28;20193;-74
2020/12/31 08:20:52;;;;;;;29.87;17.63;;;;;;;;;;5070440;28;20187;-75
2020/12/31 08:23:19;;;;;;;32.87;18.30;;;;;;;;;;5067579;28;20241;-75
2020/12/31 08:25:48;;;;;;;28.77;16.73;;;;;;;;;;5064067;28;20192;-75
2020/12/31 08:28:16;;;;;;;28.33;16.60;;;;;;;;;;5068400;28;20169;-75
2020/12/31 08:30:42;;;;;;;32.73;18.03;;;;;;;;;;5069482;28;20308;-74
2020/12/31 08:33:07;;;;;;;31.33;17.57;;;;;;;;;;5065973;28;20290;-74
2020/12/31 08:35:37;;;;;;;30.40;18.17;;;;;;;;;;5068744;28;20553;-75
2020/12/31 08:38:07;;;;;;;28.67;18.10;;;;;;;;;;5062367;28;20214;-75
2020/12/31 08:40:33;;;;;;;32.37;19.23;;;;;;;;;;5061616;28;20165;-75
2020/12/31 08:42:59;;;;;;;35.30;19.13;;;;;;;;;;5072497;28;20200;-76
2020/12/31 08:45:32;;;;;;;38.83;18.47;;;;;;;;;;5070863;28;20538;-76
2020/12/31 08:48:16;;;;;;;32.23;18.10;;;;;;;;;;5069597;28;20176;-76
2020/12/31 08:50:42;;;;;;;31.77;19.20;;;;;;;;;;5068221;28;20173;-75
2020/12/31 08:53:07;;;;;;;31.00;17.93;;;;;;;;;;5069645;28;20235;-75
2020/12/31 08:55:36;;;;;;;28.03;17.37;;;;;;;;;;5065775;28;20254;-75
2020/12/31 08:58:14;;;;;;;29.40;17.70;;;;;;;;;;5079913;28;20204;-75
2020/12/31 09:00:40;;;;;;;34.30;18.50;;;;;;;;;;5070688;28;20181;-75
2020/12/31 09:03:05;;;;;;;29.93;17.90;;;;;;;;;;5059509;28;20576;-75
2020/12/31 09:05:30;;;;;;;36.63;19.37;;;;;;;;;;5068782;28;20458;-76
2020/12/31 09:08:05;;;;;;;33.20;18.20;;;;;;;;;;5072049;28;20701;-76
2020/12/31 09:10:32;;;;;;;33.53;18.70;;;;;;;;;;5072764;28;20263;-75
2020/12/31 09:12:57;;;;;;;26.47;16.67;;;;;;;;;;5072351;28;20212;-76
2020/12/31 09:15:23;;;;;;;28.03;17.87;;;;;;;;;;5064130;28;20580;-76
2020/12/31 09:17:48;;;;;;;28.93;16.80;;;;;;;;;;5070059;28;20216;-76
2020/12/31 09:20:20;;;;;;;28.03;16.10;;;;;;;;;;5080859;28;20179;-76
2020/12/31 09:22:46;;;;;;;25.53;15.17;;;;;;;;;;5073551;28;20234;-76
2020/12/31 09:25:11;;;;;;;24.37;14.90;;;;;;;;;;5064930;28;20181;-76
2020/12/31 09:27:36;;;;;;;27.27;16.93;;;;;;;;;;5063420;28;20288;-76
2020/12/31 09:30:03;;;;;;;25.40;16.00;;;;;;;;;;5063983;28;20199;-76
2020/12/31 09:32:28;;;;;;;26.73;14.90;;;;;;;;;;5074131;28;20307;-75
2020/12/31 09:34:54;;;;;;;25.73;15.03;;;;;;;;;;5071122;28;20223;-76
2020/12/31 09:37:19;;;;;;;23.07;13.80;;;;;;;;;;5073885;28;20560;-76
2020/12/31 09:39:44;;;;;;;22.37;14.43;;;;;;;;;;5080062;28;20199;-76
2020/12/31 09:42:10;;;;;;;22.70;15.30;;;;;;;;;;5079292;28;20173;-76
2020/12/31 09:44:35;;;;;;;27.20;13.83;;;;;;;;;;5086051;28;20193;-76
2020/12/31 09:47:00;;;;;;;24.03;13.47;;;;;;;;;;5084641;28;20206;-76
2020/12/31 09:49:25;;;;;;;23.67;15.17;;;;;;;;;;5079668;28;20330;-76
2020/12/31 09:51:50;;;;;;;21.80;12.17;;;;;;;;;;5083232;28;20177;-76
2020/12/31 09:54:16;;;;;;;19.43;12.93;;;;;;;;;;5072240;28;20193;-76
2020/12/31 09:56:41;;;;;;;25.40;15.07;;;;;;;;;;5067079;28;20201;-76
2020/12/31 09:59:07;;;;;;;27.03;17.20;;;;;;;;;;5070003;28;20184;-75
2020/12/31 10:01:33;;;;;;;28.40;18.10;;;;;;;;;;5066148;28;20230;-76
2020/12/31 10:03:58;;;;;;;30.40;19.43;;;;;;;;;;5058625;28;20201;-75
2020/12/31 10:06:23;;;;;;;32.07;19.67;;;;;;;;;;5065085;28;20650;-74
2020/12/31 10:08:48;;;;;;;31.83;19.33;;;;;;;;;;5066995;28;20195;-75
2020/12/31 10:11:13;;;;;;;31.77;18.63;;;;;;;;;;5065220;28;20290;-75
2020/12/31 10:13:39;;;;;;;36.23;20.30;;;;;;;;;;5063868;28;20197;-76
2020/12/31 10:16:04;;;;;;;29.67;18.53;;;;;;;;;;5064524;28;20181;-76
2020/12/31 10:18:30;;;;;;;31.70;18.20;;;;;;;;;;5063230;28;20209;-76
2020/12/31 10:20:55;;;;;;;30.83;19.97;;;;;;;;;;5062116;28;20177;-76
2020/12/31 10:23:20;;;;;;;32.53;19.80;;;;;;;;;;5068090;28;20219;-76
2020/12/31 10:25:46;;;;;;;28.67;17.63;;;;;;;;;;5066903;28;20181;-76
2020/12/31 10:28:12;;;;;;;29.07;18.03;;;;;;;;;;5071646;28;20255;-76
2020/12/31 10:30:37;;;;;;;28.93;18.07;;;;;;;;;;5069549;28;20630;-76
2020/12/31 10:33:02;;;;;;;29.43;18.37;;;;;;;;;;5060607;28;20247;-76
2020/12/31 10:35:27;;;;;;;37.23;18.67;;;;;;;;;;5063950;28;20550;-76
2020/12/31 10:37:52;;;;;;;30.57;18.83;;;;;;;;;;5067613;28;20208;-76
2020/12/31 10:40:17;;;;;;;31.37;19.10;;;;;;;;;;5066065;28;20177;-76
2020/12/31 10:42:43;;;;;;;28.27;17.03;;;;;;;;;;5074078;28;20558;-75
2020/12/31 10:45:08;;;;;;;31.67;18.48;;;;;;;;;;5072648;28;20226;-76
2020/12/31 10:47:33;;;;;;;29.20;17.43;;;;;;;;;;5073176;28;20653;-76
2020/12/31 10:49:58;;;;;;;30.20;16.97;;;;;;;;;;5073702;28;20185;-76
2020/12/31 10:52:23;;;;;;;33.53;19.77;;;;;;;;;;5073867;28;20177;-76
2020/12/31 10:54:49;;;;;;;31.93;18.87;;;;;;;;;;5071462;28;20205;-76
2020/12/31 10:57:14;;;;;;;32.33;17.73;;;;;;;;;;5073060;28;20688;-75
2020/12/31 10:59:39;;;;;;;28.33;18.17;;;;;;;;;;5068406;28;20267;-76
2020/12/31 11:02:04;;;;;;;33.00;18.70;;;;;;;;;;5066828;28;20184;-75
2020/12/31 11:04:29;;;;;;;29.20;17.50;;;;;;;;;;5073406;28;20725;-75
2020/12/31 11:06:54;;;;;;;32.07;19.70;;;;;;;;;;5069205;28;20192;-76
2020/12/31 11:09:20;;;;;;;28.90;18.00;;;;;;;;;;5070917;28;20189;-75
2020/12/31 11:11:45;;;;;;;34.33;19.47;;;;;;;;;;5064671;28;20181;-75
2020/12/31 11:14:10;;;;;;;29.40;18.50;;;;;;;;;;5061762;28;20282;-75
2020/12/31 11:16:35;;;;;;;31.53;17.93;;;;;;;;;;5063706;28;20251;-76
2020/12/31 11:19:01;;;;;;;27.83;18.17;;;;;;;;;;5065999;28;20176;-76
2020/12/31 11:21:26;;;;;;;26.77;17.93;;;;;;;;;;5067654;28;20801;-76
2020/12/31 11:23:51;;;;;;;30.07;18.87;;;;;;;;;;5064883;28;20236;-75
2020/12/31 11:26:17;;;;;;;32.23;18.63;;;;;;;;;;5068561;28;20549;-76
2020/12/31 11:28:43;;;;;;;26.60;18.77;;;;;;;;;;5066151;28;20649;-76
2020/12/31 11:31:09;;;;;;;36.67;19.93;;;;;;;;;;5066912;28;20294;-77
2020/12/31 11:33:35;;;;;;;29.70;18.60;;;;;;;;;;5064893;28;20359;-76
2020/12/31 11:36:00;;;;;;;30.40;18.87;;;;;;;;;;5066298;28;20390;-76
2020/12/31 11:38:27;;;;;;;28.43;19.13;;;;;;;;;;5061196;28;20193;-76
2020/12/31 11:40:52;;;;;;;32.60;20.73;;;;;;;;;;5069361;28;20173;-76
2020/12/31 11:43:17;;;;;;;32.37;20.87;;;;;;;;;;5063977;28;20197;-77
2020/12/31 11:45:43;;;;;;;30.83;21.03;;;;;;;;;;5063467;28;20618;-76
2020/12/31 11:48:09;;;;;;;30.03;20.47;;;;;;;;;;5067826;28;20184;-76
2020/12/31 11:50:35;;;;;;;29.53;20.70;;;;;;;;;;5065394;28;20665;-76
2020/12/31 11:53:00;;;;;;;28.00;20.40;;;;;;;;;;5068481;28;20584;-76
2020/12/31 11:55:25;;;;;;;30.47;19.87;;;;;;;;;;5068350;28;20176;-76
2020/12/31 11:57:51;;;;;;;33.90;21.80;;;;;;;;;;5064379;28;20205;-76
2020/12/31 12:00:16;;;;;;;29.13;20.67;;;;;;;;;;5062694;28;20260;-76
2020/12/31 12:02:41;;;;;;;29.73;19.77;;;;;;;;;;5070283;28;20180;-76
2020/12/31 12:05:07;;;;;;;29.47;20.17;;;;;;;;;;5068520;28;20711;-76
2020/12/31 12:07:32;;;;;;;31.70;20.97;;;;;;;;;;5065307;28;20611;-76
2020/12/31 12:09:57;;;;;;;31.07;21.37;;;;;;;;;;5061649;28;20264;-76
2020/12/31 12:12:22;;;;;;;29.40;19.80;;;;;;;;;;5067624;28;20246;-76
2020/12/31 12:14:48;;;;;;;28.03;19.00;;;;;;;;;;5063604;28;20316;-76
2020/12/31 12:17:13;;;;;;;24.83;16.57;;;;;;;;;;5068439;28;20236;-76
2020/12/31 12:19:38;;;;;;;28.30;17.63;;;;;;;;;;5060690;28;20653;-76
2020/12/31 12:22:03;;;;;;;30.57;19.63;;;;;;;;;;5062422;28;20182;-75
2020/12/31 12:24:28;;;;;;;26.97;18.00;;;;;;;;;;5070214;28;20197;-77
2020/12/31 12:26:54;;;;;;;29.07;19.00;;;;;;;;;;5063051;28;20184;-77
2020/12/31 12:29:19;;;;;;;26.90;18.33;;;;;;;;;;5058211;28;20189;-75
2020/12/31 12:31:44;;;;;;;29.90;18.73;;;;;;;;;;5067436;28;20593;-77
2020/12/31 12:34:09;;;;;;;29.03;19.40;;;;;;;;;;5060619;28;20282;-77
2020/12/31 12:36:35;;;;;;;27.47;19.77;;;;;;;;;;5063385;28;20208;-77
2020/12/31 12:39:01;;;;;;;33.10;22.13;;;;;;;;;;5059077;28;20552;-75
2020/12/31 12:41:26;;;;;;;29.97;21.47;;;;;;;;;;5066609;28;20178;-75
2020/12/31 12:43:52;;;;;;;35.87;23.93;;;;;;;;;;5063721;28;20636;-75
2020/12/31 12:46:17;;;;;;;30.37;21.63;;;;;;;;;;5076381;28;20182;-75
2020/12/31 12:48:43;;;;;;;30.07;19.87;;;;;;;;;;5066623;28;20269;-75
2020/12/31 12:51:08;;;;;;;28.47;18.60;;;;;;;;;;5072315;28;20180;-75
2020/12/31 12:53:33;;;;;;;27.43;18.97;;;;;;;;;;5066712;28;20197;-75
2020/12/31 12:55:58;;;;;;;25.00;18.03;;;;;;;;;;5067052;28;20173;-75
2020/12/31 12:58:24;;;;;;;30.07;18.97;;;;;;;;;;5067548;28;20296;-75
2020/12/31 13:00:49;;;;;;;29.53;19.33;;;;;;;;;;5069670;28;20173;-75
2020/12/31 13:03:14;;;;;;;25.40;16.70;;;;;;;;;;5058262;28;20196;-75
2020/12/31 13:05:39;;;;;;;27.10;18.53;;;;;;;;;;5069084;28;20181;-76
2020/12/31 13:08:06;;;;;;;28.27;17.53;;;;;;;;;;5068385;28;20243;-78
2020/12/31 13:10:31;;;;;;;24.87;16.77;;;;;;;;;;5075700;28;20181;-77
2020/12/31 13:12:56;;;;;;;23.50;16.77;;;;;;;;;;5070064;28;20265;-77
2020/12/31 13:15:21;;;;;;;24.90;16.30;;;;;;;;;;5070015;28;20200;-78
2020/12/31 13:17:46;;;;;;;23.53;15.97;;;;;;;;;;5066410;28;20204;-75
2020/12/31 13:20:12;;;;;;;24.03;14.47;;;;;;;;;;5068592;28;20201;-75
2020/12/31 13:22:37;;;;;;;26.03;15.93;;;;;;;;;;5067243;28;20264;-75
2020/12/31 13:25:03;;;;;;;18.87;13.07;;;;;;;;;;5070967;28;20177;-78
2020/12/31 13:27:28;;;;;;;24.63;13.57;;;;;;;;;;5068589;28;20177;-79
2020/12/31 13:29:53;;;;;;;19.80;13.00;;;;;;;;;;5067955;28;20180;-76
2020/12/31 13:32:18;;;;;;;20.33;13.60;;;;;;;;;;5070827;28;20209;-76
2020/12/31 13:34:43;;;;;;;21.60;12.93;;;;;;;;;;5065098;28;20232;-76
2020/12/31 13:37:09;;;;;;;17.07;12.53;;;;;;;;;;5068055;28;20678;-76
2020/12/31 13:39:34;;;;;;;22.63;14.43;;;;;;;;;;5069026;28;20169;-75
2020/12/31 13:41:59;;;;;;;19.43;13.67;;;;;;;;;;5069916;28;20215;-78
2020/12/31 13:44:24;;;;;;;19.23;14.53;;;;;;;;;;5068855;28;20221;-75
2020/12/31 13:46:50;;;;;;;21.97;14.73;;;;;;;;;;5067983;28;20182;-75
2020/12/31 13:49:15;;;;;;;20.33;14.07;;;;;;;;;;5070633;28;20180;-75
2020/12/31 13:51:40;;;;;;;23.47;14.47;;;;;;;;;;5070049;28;20530;-75
2020/12/31 13:54:05;;;;;;;18.60;13.20;;;;;;;;;;5069102;28;20193;-75
2020/12/31 13:56:30;;;;;;;23.40;14.40;;;;;;;;;;5062870;28;20177;-75
2020/12/31 13:58:56;;;;;;;21.67;15.03;;;;;;;;;;5061692;28;20326;-75
2020/12/31 14:01:21;;;;;;;25.60;17.27;;;;;;;;;;5070445;28;20177;-75
2020/12/31 14:03:46;;;;;;;24.07;15.57;;;;;;;;;;5070413;28;20200;-75
2020/12/31 14:06:12;;;;;;;24.27;14.67;;;;;;;;;;5073584;28;20635;-75
2020/12/31 14:08:37;;;;;;;21.63;12.87;;;;;;;;;;5070609;28;20169;-75
2020/12/31 14:11:02;;;;;;;21.23;14.40;;;;;;;;;;5071707;28;20181;-75
2020/12/31 14:13:27;;;;;;;18.67;12.17;;;;;;;;;;5073030;28;20196;-76
2020/12/31 14:15:53;;;;;;;19.63;13.73;;;;;;;;;;5074244;28;20177;-76